Time;durP1;ratioP1;P1;durP2;ratioP2;P2;SDS_P1;SDS_P2;PMS_P1;PMS_P2;Temp;Humidity;BMP_temperature;BMP_pressure;BME280_temperature;BME280_humidity;BME280_pressure;Samples;Min_cycle;Max_cycle;Signal;HPM_P1;HPM_P2
2022/05/02 00:01:01;;;;;;;5.60;1.52;;;;;;;;;;5034285;28;20144;-74
2022/05/02 00:03:27;;;;;;;4.53;1.48;;;;;;;;;;5038395;28;20132;-73
2022/05/02 00:05:55;;;;;;;5.35;1.52;;;;;;;;;;5014286;28;20029;-74
2022/05/02 00:08:21;;;;;;;3.55;1.63;;;;;;;;;;5036505;28;20846;-73
2022/05/02 00:10:47;;;;;;;4.25;1.67;;;;;;;;;;5038558;28;20032;-73
2022/05/02 00:13:13;;;;;;;6.30;2.63;;;;;;;;;;5039860;28;20032;-74
2022/05/02 00:15:39;;;;;;;6.88;2.65;;;;;;;;;;5035215;28;20032;-74
2022/05/02 00:18:07;;;;;;;7.95;3.17;;;;;;;;;;5034257;28;20438;-73
2022/05/02 00:20:36;;;;;;;9.02;2.97;;;;;;;;;;5039295;28;20074;-73
2022/05/02 00:23:04;;;;;;;6.32;2.90;;;;;;;;;;5042518;28;20080;-74
2022/05/02 00:25:30;;;;;;;8.15;3.40;;;;;;;;;;5035223;28;20403;-73
2022/05/02 00:27:57;;;;;;;7.47;3.50;;;;;;;;;;5060738;28;20393;-73
2022/05/02 00:30:23;;;;;;;10.98;3.50;;;;;;;;;;5032686;28;20037;-73
2022/05/02 00:32:49;;;;;;;7.85;3.35;;;;;;;;;;5038313;28;20437;-73
2022/05/02 00:35:15;;;;;;;5.88;2.85;;;;;;;;;;5035210;28;20029;-73
2022/05/02 00:37:42;;;;;;;7.43;3.20;;;;;;;;;;5037050;28;20040;-73
2022/05/02 00:40:09;;;;;;;7.55;3.33;;;;;;;;;;5033057;28;20029;-73
2022/05/02 00:42:35;;;;;;;6.20;2.90;;;;;;;;;;5044647;28;20060;-73
2022/05/02 00:45:01;;;;;;;7.18;2.97;;;;;;;;;;5039772;28;20091;-73
2022/05/02 00:47:27;;;;;;;10.05;4.05;;;;;;;;;;5032818;28;20037;-73
2022/05/02 00:49:53;;;;;;;9.77;3.15;;;;;;;;;;5040182;28;20032;-73
2022/05/02 00:52:21;;;;;;;8.70;3.38;;;;;;;;;;5033864;28;20137;-73
2022/05/02 00:54:47;;;;;;;6.35;3.20;;;;;;;;;;5043566;28;20037;-73
2022/05/02 00:57:14;;;;;;;4.93;2.60;;;;;;;;;;5035239;28;20919;-73
2022/05/02 00:59:41;;;;;;;9.93;3.47;;;;;;;;;;5039564;28;20061;-73
2022/05/02 01:02:08;;;;;;;7.03;2.42;;;;;;;;;;5041838;28;20048;-73
2022/05/02 01:04:35;;;;;;;11.07;3.03;;;;;;;;;;5047724;28;20032;-73
2022/05/02 01:07:19;;;;;;;5.57;2.80;;;;;;;;;;5033038;28;20667;-73
2022/05/02 01:09:46;;;;;;;9.05;2.97;;;;;;;;;;5032499;28;20040;-73
2022/05/02 01:12:16;;;;;;;6.28;3.13;;;;;;;;;;5034341;28;20068;-73
2022/05/02 01:14:43;;;;;;;6.68;3.33;;;;;;;;;;5041619;28;20033;-73
2022/05/02 01:17:09;;;;;;;6.72;3.00;;;;;;;;;;5042394;28;20147;-73
2022/05/02 01:19:35;;;;;;;9.90;3.25;;;;;;;;;;5045952;28;20096;-73
2022/05/02 01:22:02;;;;;;;8.77;3.30;;;;;;;;;;5035116;28;20045;-73
2022/05/02 01:24:33;;;;;;;7.93;2.70;;;;;;;;;;5042939;28;20033;-73
2022/05/02 01:26:59;;;;;;;6.63;3.00;;;;;;;;;;5040032;28;20475;-73
2022/05/02 01:29:25;;;;;;;7.63;3.03;;;;;;;;;;5041208;28;20033;-73
2022/05/02 01:31:54;;;;;;;6.45;2.95;;;;;;;;;;5037819;28;20065;-74
2022/05/02 01:34:20;;;;;;;5.90;3.03;;;;;;;;;;5042819;28;20876;-73
2022/05/02 01:36:45;;;;;;;7.72;3.42;;;;;;;;;;5043120;28;20033;-73
2022/05/02 01:39:11;;;;;;;5.80;3.15;;;;;;;;;;5037741;28;20025;-73
2022/05/02 01:41:37;;;;;;;6.97;2.78;;;;;;;;;;5016916;28;20077;-73
2022/05/02 01:44:03;;;;;;;5.00;2.67;;;;;;;;;;5035116;28;20051;-73
2022/05/02 01:46:29;;;;;;;6.88;2.92;;;;;;;;;;5038780;28;20617;-73
2022/05/02 01:48:56;;;;;;;9.05;2.85;;;;;;;;;;5041225;28;20037;-73
2022/05/02 01:51:22;;;;;;;7.45;3.10;;;;;;;;;;5041799;28;20045;-73
2022/05/02 01:53:48;;;;;;;7.10;2.90;;;;;;;;;;5037985;28;20049;-73
2022/05/02 01:56:14;;;;;;;6.03;2.88;;;;;;;;;;5045448;28;20052;-73
2022/05/02 01:58:40;;;;;;;5.90;2.50;;;;;;;;;;5040197;28;20037;-73
2022/05/02 02:01:06;;;;;;;8.07;2.85;;;;;;;;;;5033526;28;20471;-73
2022/05/02 02:03:32;;;;;;;6.25;3.05;;;;;;;;;;5037416;28;20033;-73
2022/05/02 02:05:59;;;;;;;5.50;2.72;;;;;;;;;;5041683;28;20622;-73
2022/05/02 02:08:25;;;;;;;6.32;2.90;;;;;;;;;;5041453;28;20123;-73
2022/05/02 02:10:53;;;;;;;6.75;2.70;;;;;;;;;;5039252;28;20124;-73
2022/05/02 02:13:20;;;;;;;7.30;2.30;;;;;;;;;;5046143;28;20056;-74
2022/05/02 02:15:46;;;;;;;7.07;2.17;;;;;;;;;;5036014;28;20041;-74
2022/05/02 02:18:12;;;;;;;6.60;2.67;;;;;;;;;;5043025;28;20095;-74
2022/05/02 02:20:41;;;;;;;8.35;2.80;;;;;;;;;;5037448;28;20040;-74
2022/05/02 02:23:07;;;;;;;6.45;1.98;;;;;;;;;;5033783;28;20037;-73
2022/05/02 02:25:34;;;;;;;4.45;2.10;;;;;;;;;;5040296;28;20102;-73
2022/05/02 02:28:02;;;;;;;6.45;2.47;;;;;;;;;;5032494;28;20884;-73
2022/05/02 02:30:29;;;;;;;6.18;2.00;;;;;;;;;;5045618;28;20825;-73
2022/05/02 02:32:56;;;;;;;3.70;2.05;;;;;;;;;;5060999;28;20613;-73
2022/05/02 02:35:22;;;;;;;5.70;2.42;;;;;;;;;;5044385;28;20748;-73
2022/05/02 02:37:49;;;;;;;4.70;2.45;;;;;;;;;;5043283;28;20056;-73
2022/05/02 02:40:15;;;;;;;4.85;2.00;;;;;;;;;;5043594;28;20033;-73
2022/05/02 02:42:41;;;;;;;10.73;2.63;;;;;;;;;;5042349;28;20025;-73
2022/05/02 02:45:08;;;;;;;6.65;2.53;;;;;;;;;;5032859;28;20846;-73
2022/05/02 02:47:34;;;;;;;7.05;2.60;;;;;;;;;;5047914;28;20037;-73
2022/05/02 02:50:00;;;;;;;6.70;2.55;;;;;;;;;;5045718;28;20501;-73
2022/05/02 02:52:26;;;;;;;6.68;2.03;;;;;;;;;;5036648;28;20063;-73
2022/05/02 02:54:52;;;;;;;6.45;1.95;;;;;;;;;;5035285;28;20024;-73
2022/05/02 02:57:18;;;;;;;7.00;2.35;;;;;;;;;;5021213;28;20493;-73
2022/05/02 02:59:44;;;;;;;5.53;2.05;;;;;;;;;;5040786;28;20032;-73
2022/05/02 03:02:10;;;;;;;6.00;2.40;;;;;;;;;;5041580;28;20033;-73
2022/05/02 03:07:22;;;;;;;8.63;3.47;;;;;;;;;;5033085;28;20049;-73
2022/05/02 03:09:48;;;;;;;6.70;3.03;;;;;;;;;;5043040;28;20079;-73
2022/05/02 03:12:14;;;;;;;7.63;3.45;;;;;;;;;;5034024;28;20037;-73
2022/05/02 03:14:40;;;;;;;6.53;3.45;;;;;;;;;;5043752;28;20029;-73
2022/05/02 03:17:06;;;;;;;9.27;3.45;;;;;;;;;;5041728;28;20032;-73
2022/05/02 03:19:32;;;;;;;6.95;2.95;;;;;;;;;;5021300;28;20677;-73
2022/05/02 03:21:58;;;;;;;5.90;2.53;;;;;;;;;;5038024;28;20052;-73
2022/05/02 03:24:24;;;;;;;6.10;2.65;;;;;;;;;;5038550;28;20039;-73
2022/05/02 03:26:50;;;;;;;7.97;3.08;;;;;;;;;;5039129;28;20102;-73
2022/05/02 03:29:16;;;;;;;5.47;2.70;;;;;;;;;;5021222;28;20037;-73
2022/05/02 03:31:42;;;;;;;7.25;2.85;;;;;;;;;;5040656;28;20068;-73
2022/05/02 03:34:08;;;;;;;7.47;2.78;;;;;;;;;;5039572;28;20040;-73
2022/05/02 03:36:35;;;;;;;6.55;2.75;;;;;;;;;;5040940;28;20501;-73
2022/05/02 03:39:01;;;;;;;7.30;2.75;;;;;;;;;;5011355;28;20040;-73
2022/05/02 03:41:27;;;;;;;5.00;2.45;;;;;;;;;;5044967;28;20040;-73
2022/05/02 03:43:53;;;;;;;5.82;2.78;;;;;;;;;;5037275;28;20061;-73
2022/05/02 03:46:19;;;;;;;4.18;2.28;;;;;;;;;;5037944;28;20060;-73
2022/05/02 03:48:45;;;;;;;7.22;2.25;;;;;;;;;;5058555;28;20037;-73
2022/05/02 03:51:11;;;;;;;6.45;2.42;;;;;;;;;;5036347;28;20504;-73
2022/05/02 03:53:38;;;;;;;6.97;2.70;;;;;;;;;;5041900;28;20508;-73
2022/05/02 03:56:04;;;;;;;5.00;2.47;;;;;;;;;;5040625;28;20032;-73
2022/05/02 03:58:30;;;;;;;7.75;2.80;;;;;;;;;;5037947;28;20425;-73
2022/05/02 04:00:56;;;;;;;7.45;2.88;;;;;;;;;;5038707;28;20029;-73
2022/05/02 04:03:22;;;;;;;7.75;3.40;;;;;;;;;;5042351;28;20056;-73
2022/05/02 04:05:48;;;;;;;8.80;2.85;;;;;;;;;;5043639;28;20107;-73
2022/05/02 04:08:14;;;;;;;9.85;3.67;;;;;;;;;;5040772;28;20029;-73
2022/05/02 04:10:40;;;;;;;7.45;3.53;;;;;;;;;;5045909;28;20041;-73
2022/05/02 04:13:06;;;;;;;7.63;3.65;;;;;;;;;;5035274;28;20034;-73
2022/05/02 04:15:34;;;;;;;7.85;3.03;;;;;;;;;;5022641;28;20041;-73
2022/05/02 04:18:00;;;;;;;11.88;3.88;;;;;;;;;;5039333;28;20036;-73
2022/05/02 04:20:26;;;;;;;9.20;4.32;;;;;;;;;;5034516;28;20044;-73
2022/05/02 04:22:52;;;;;;;8.80;3.50;;;;;;;;;;5043160;28;20057;-73
2022/05/02 04:25:18;;;;;;;6.75;3.10;;;;;;;;;;5038569;28;20474;-73
2022/05/02 04:27:44;;;;;;;5.85;2.88;;;;;;;;;;5042292;28;20075;-73
2022/05/02 04:30:11;;;;;;;8.27;2.97;;;;;;;;;;5038718;28;20037;-73
2022/05/02 04:32:37;;;;;;;7.90;3.33;;;;;;;;;;5026047;28;20032;-73
2022/05/02 04:35:04;;;;;;;9.48;3.13;;;;;;;;;;5030066;28;20072;-73
2022/05/02 04:37:30;;;;;;;8.38;3.40;;;;;;;;;;5045001;28;20135;-73
2022/05/02 04:39:56;;;;;;;9.93;3.58;;;;;;;;;;5062590;28;20617;-73
2022/05/02 04:42:23;;;;;;;6.80;3.22;;;;;;;;;;5040089;28;20033;-73
2022/05/02 04:44:49;;;;;;;9.50;4.18;;;;;;;;;;5035572;28;20043;-73
2022/05/02 04:47:15;;;;;;;10.75;4.18;;;;;;;;;;5036136;28;20045;-73
2022/05/02 04:49:41;;;;;;;12.63;3.92;;;;;;;;;;5043054;28;20044;-73
2022/05/02 04:52:07;;;;;;;10.85;3.50;;;;;;;;;;5038664;28;20041;-73
2022/05/02 04:54:33;;;;;;;9.27;4.00;;;;;;;;;;5044333;28;20079;-73
2022/05/02 04:56:59;;;;;;;15.30;5.35;;;;;;;;;;5018324;28;20036;-73
2022/05/02 04:59:25;;;;;;;10.10;4.53;;;;;;;;;;5046675;28;20066;-73
2022/05/02 05:01:51;;;;;;;9.27;4.18;;;;;;;;;;5036488;28;20049;-73
2022/05/02 05:04:17;;;;;;;7.68;4.30;;;;;;;;;;5038032;28;20409;-73
2022/05/02 05:06:43;;;;;;;11.00;4.28;;;;;;;;;;5035155;28;20060;-73
2022/05/02 05:09:10;;;;;;;11.20;3.92;;;;;;;;;;5036695;28;20390;-73
2022/05/02 05:11:35;;;;;;;16.27;4.80;;;;;;;;;;5045942;28;20033;-73
2022/05/02 05:17:06;;;;;;;11.32;4.78;;;;;;;;;;5041533;28;20048;-73
2022/05/02 05:19:32;;;;;;;10.90;4.28;;;;;;;;;;5039557;28;20021;-73
2022/05/02 05:22:22;;;;;;;15.10;4.93;;;;;;;;;;5027877;28;20075;-73
2022/05/02 05:25:11;;;;;;;31.40;6.70;;;;;;;;;;5037785;28;20104;-73
2022/05/02 05:27:40;;;;;;;13.00;5.03;;;;;;;;;;5040954;28;20067;-73
2022/05/02 05:30:10;;;;;;;15.30;5.35;;;;;;;;;;5040960;28;20532;-73
2022/05/02 05:32:44;;;;;;;13.55;5.78;;;;;;;;;;5040450;28;20120;-74
2022/05/02 05:35:11;;;;;;;8.45;4.95;;;;;;;;;;5024967;28;20033;-73
2022/05/02 05:37:37;;;;;;;13.55;4.88;;;;;;;;;;5038379;28;20774;-74
2022/05/02 05:40:05;;;;;;;15.60;5.47;;;;;;;;;;5044430;28;20021;-74
2022/05/02 05:42:31;;;;;;;11.40;4.05;;;;;;;;;;5040391;28;20111;-73
2022/05/02 05:45:04;;;;;;;8.10;3.78;;;;;;;;;;5037714;28;20451;-73
2022/05/02 05:47:31;;;;;;;12.70;4.57;;;;;;;;;;5041077;28;20052;-74
2022/05/02 05:50:06;;;;;;;6.90;3.78;;;;;;;;;;5045202;28;20048;-73
2022/05/02 05:52:44;;;;;;;8.60;3.40;;;;;;;;;;5040666;28;20033;-73
2022/05/02 05:55:19;;;;;;;12.70;4.57;;;;;;;;;;5020208;28;20033;-73
2022/05/02 05:57:53;;;;;;;10.00;3.97;;;;;;;;;;5038526;28;20036;-73
2022/05/02 06:00:19;;;;;;;12.98;4.90;;;;;;;;;;5039735;28;20053;-73
2022/05/02 06:02:55;;;;;;;9.23;4.20;;;;;;;;;;5047558;28;20537;-73
2022/05/02 06:05:21;;;;;;;9.75;4.00;;;;;;;;;;5061725;22;20587;-73
2022/05/02 06:07:47;;;;;;;9.48;3.60;;;;;;;;;;5029763;28;20048;-74
2022/05/02 06:10:17;;;;;;;10.50;4.03;;;;;;;;;;5044050;28;20084;-74
2022/05/02 06:12:44;;;;;;;9.38;3.80;;;;;;;;;;5046256;28;20025;-73
2022/05/02 06:20:46;;;;;;;11.48;4.78;;;;;;;;;;5045212;28;20414;-74
2022/05/02 06:23:16;;;;;;;16.50;5.20;;;;;;;;;;5045315;28;20045;-73
2022/05/02 06:25:44;;;;;;;9.32;3.03;;;;;;;;;;5047284;28;20080;-74
2022/05/02 06:28:10;;;;;;;6.55;2.58;;;;;;;;;;5043262;28;20037;-74
2022/05/02 06:30:37;;;;;;;7.55;2.67;;;;;;;;;;5048765;28;20073;-74
2022/05/02 06:33:13;;;;;;;6.22;2.15;;;;;;;;;;5047773;28;20040;-73
2022/05/02 06:35:56;;;;;;;6.55;2.30;;;;;;;;;;5045586;28;20025;-74
2022/05/02 06:38:22;;;;;;;;;;;;;;;;;;5046057;28;20067;-73
2022/05/02 06:40:57;;;;;;;4.75;2.28;;;;;;;;;;5044222;28;20003;-74
2022/05/02 06:43:26;;;;;;;6.80;2.30;;;;;;;;;;5048765;28;20036;-73
2022/05/02 06:45:58;;;;;;;7.18;2.40;;;;;;;;;;5043288;28;20035;-73
2022/05/02 06:48:28;;;;;;;5.53;2.65;;;;;;;;;;5046258;28;20613;-73
2022/05/02 06:50:57;;;;;;;11.18;3.92;;;;;;;;;;5042343;28;20025;-73
2022/05/02 06:53:37;;;;;;;7.47;3.13;;;;;;;;;;5040644;28;20371;-73
2022/05/02 06:56:07;;;;;;;9.13;4.07;;;;;;;;;;5046039;28;20115;-73
2022/05/02 06:58:45;;;;;;;8.25;3.30;;;;;;;;;;5044882;28;20098;-73
2022/05/02 07:01:30;;;;;;;9.63;3.90;;;;;;;;;;5039871;28;20056;-74
2022/05/02 07:03:58;;;;;;;6.75;3.38;;;;;;;;;;5046416;28;20562;-73
2022/05/02 07:06:48;;;;;;;8.85;3.53;;;;;;;;;;5043565;28;20024;-73
2022/05/02 07:09:19;;;;;;;8.80;3.45;;;;;;;;;;5008182;28;20157;-74
2022/05/02 07:12:12;;;;;;;5.32;2.63;;;;;;;;;;5046258;28;20513;-73
2022/05/02 07:14:38;;;;;;;5.78;2.45;;;;;;;;;;5040282;28;20076;-73
2022/05/02 07:17:12;;;;;;;6.65;2.70;;;;;;;;;;5041606;28;20124;-73
2022/05/02 07:19:48;;;;;;;7.78;3.10;;;;;;;;;;5045453;28;20056;-73
2022/05/02 07:22:19;;;;;;;6.53;2.67;;;;;;;;;;5044597;28;20070;-73
2022/05/02 07:24:48;;;;;;;5.60;2.97;;;;;;;;;;5044494;28;20040;-74
2022/05/02 07:27:16;;;;;;;5.88;2.90;;;;;;;;;;5040763;28;20033;-73
2022/05/02 07:29:43;;;;;;;9.93;2.65;;;;;;;;;;5037949;28;20032;-73
2022/05/02 07:32:10;;;;;;;6.97;2.05;;;;;;;;;;5039935;28;20406;-73
2022/05/02 07:34:39;;;;;;;7.50;1.98;;;;;;;;;;5046645;28;20032;-73
2022/05/02 07:37:05;;;;;;;5.55;1.92;;;;;;;;;;5024020;28;20493;-73
2022/05/02 07:39:32;;;;;;;10.55;2.22;;;;;;;;;;5045767;28;20056;-73
2022/05/02 07:42:03;;;;;;;7.28;2.60;;;;;;;;;;5046175;28;20095;-73
2022/05/02 07:44:30;;;;;;;5.97;2.30;;;;;;;;;;5046799;28;20060;-74
2022/05/02 07:46:58;;;;;;;6.38;2.38;;;;;;;;;;5043080;28;20036;-74
2022/05/02 07:49:26;;;;;;;3.63;1.83;;;;;;;;;;5044322;28;20040;-73
2022/05/02 07:51:52;;;;;;;6.97;2.13;;;;;;;;;;5045936;28;20033;-74
2022/05/02 07:54:37;;;;;;;8.77;2.30;;;;;;;;;;5040972;28;20040;-73
2022/05/02 07:57:05;;;;;;;9.43;2.33;;;;;;;;;;5041592;28;20032;-73
2022/05/02 07:59:34;;;;;;;6.80;2.65;;;;;;;;;;5039057;28;20738;-73
2022/05/02 08:02:00;;;;;;;116.97;9.48;;;;;;;;;;5044626;28;20246;-74
2022/05/02 08:04:26;;;;;;;163.75;11.95;;;;;;;;;;5042705;28;20048;-73
2022/05/02 08:06:55;;;;;;;6.68;2.05;;;;;;;;;;5043389;28;20029;-74
2022/05/02 08:09:40;;;;;;;4.38;1.65;;;;;;;;;;5039927;28;20051;-74
2022/05/02 08:12:12;;;;;;;5.63;2.10;;;;;;;;;;5045589;28;20077;-74
2022/05/02 08:14:57;;;;;;;5.57;2.00;;;;;;;;;;5036152;28;20025;-73
2022/05/02 08:17:38;;;;;;;6.25;2.22;;;;;;;;;;5043790;28;20031;-73
2022/05/02 08:20:20;;;;;;;4.43;1.67;;;;;;;;;;5045474;28;20488;-73
2022/05/02 08:29:06;;;;;;;8.10;2.30;;;;;;;;;;5044266;28;20048;-74
2022/05/02 08:31:47;;;;;;;6.63;1.73;;;;;;;;;;5044787;28;20490;-73
2022/05/02 08:34:24;;;;;;;5.13;1.80;;;;;;;;;;5043429;28;20475;-74
2022/05/02 08:36:50;;;;;;;6.40;2.08;;;;;;;;;;5041316;28;20275;-73
2022/05/02 08:39:20;;;;;;;6.40;2.17;;;;;;;;;;5045075;28;20141;-73
2022/05/02 08:42:11;;;;;;;9.30;2.13;;;;;;;;;;5047194;28;20431;-73
2022/05/02 08:44:53;;;;;;;6.63;1.95;;;;;;;;;;5005058;28;20045;-73
2022/05/02 08:47:19;;;;;;;;;;;;;;;;;;5048312;28;20089;-73
2022/05/02 08:49:57;;;;;;;7.18;2.25;;;;;;;;;;5048998;28;19967;-73
2022/05/02 08:52:29;;;;;;;12.57;2.28;;;;;;;;;;5048976;28;20032;-73
2022/05/02 08:55:06;;;;;;;4.18;1.70;;;;;;;;;;5047242;28;20036;-73
2022/05/02 08:57:41;;;;;;;6.53;1.92;;;;;;;;;;5038233;28;20033;-73
2022/05/02 09:00:09;;;;;;;5.38;1.95;;;;;;;;;;5049457;28;20641;-73
2022/05/02 09:02:54;;;;;;;5.82;2.63;;;;;;;;;;5047326;28;20025;-73
2022/05/02 09:05:21;;;;;;;7.25;2.40;;;;;;;;;;5036028;28;20510;-73
2022/05/02 09:07:53;;;;;;;6.32;2.55;;;;;;;;;;5049364;28;20150;-73
2022/05/02 09:10:26;;;;;;;9.63;2.15;;;;;;;;;;5047749;28;20135;-73
2022/05/02 09:12:58;;;;;;;4.30;1.80;;;;;;;;;;5046077;28;20036;-73
2022/05/02 09:15:36;;;;;;;7.53;2.42;;;;;;;;;;5044324;28;20039;-73
2022/05/02 09:18:20;;;;;;;4.47;2.00;;;;;;;;;;5049855;28;20148;-73
2022/05/02 09:20:47;;;;;;;8.25;2.55;;;;;;;;;;5049549;28;20441;-73
2022/05/02 09:23:32;;;;;;;7.10;2.15;;;;;;;;;;5050974;28;20124;-73
2022/05/02 09:26:00;;;;;;;5.63;2.10;;;;;;;;;;5048651;28;20024;-73
2022/05/02 09:28:39;;;;;;;6.82;2.20;;;;;;;;;;5047571;28;20051;-73
2022/05/02 09:31:10;;;;;;;5.82;2.20;;;;;;;;;;5044832;28;20044;-73
2022/05/02 09:33:36;;;;;;;;;;;;;;;;;;5047613;28;20113;-73
2022/05/02 09:36:05;;;;;;;6.55;2.35;;;;;;;;;;5042053;28;19995;-73
2022/05/02 09:38:43;;;;;;;4.60;2.50;;;;;;;;;;5044081;28;20041;-73
2022/05/02 09:41:28;;;;;;;5.32;1.80;;;;;;;;;;5045220;28;20037;-73
2022/05/02 09:49:47;;;;;;;8.43;2.20;;;;;;;;;;5042355;28;20056;-73
2022/05/02 09:52:17;;;;;;;4.78;1.92;;;;;;;;;;5024552;28;20044;-73
2022/05/02 09:57:50;;;;;;;4.90;2.20;;;;;;;;;;5043606;28;20063;-73
2022/05/02 10:03:25;;;;;;;5.32;2.20;;;;;;;;;;5045596;28;20070;-73
2022/05/02 10:06:14;;;;;;;6.78;3.03;;;;;;;;;;5043610;28;20056;-73
2022/05/02 10:08:40;;;;;;;6.13;2.75;;;;;;;;;;5034331;28;20049;-73
2022/05/02 10:11:13;;;;;;;8.32;2.53;;;;;;;;;;5047183;28;20044;-73
2022/05/02 10:13:39;;;;;;;6.80;2.38;;;;;;;;;;5044921;28;20120;-73
2022/05/02 10:16:08;;;;;;;7.10;2.25;;;;;;;;;;5042445;28;20105;-73
2022/05/02 10:18:53;;;;;;;10.50;2.97;;;;;;;;;;5047981;28;20072;-73
2022/05/02 10:21:35;;;;;;;7.90;2.40;;;;;;;;;;5042411;28;20042;-73
2022/05/02 10:24:21;;;;;;;6.55;2.55;;;;;;;;;;5038387;28;20065;-73
2022/05/02 10:26:53;;;;;;;4.63;2.38;;;;;;;;;;5042949;28;20120;-73
2022/05/02 10:29:27;;;;;;;6.50;2.70;;;;;;;;;;5044584;28;20048;-73
2022/05/02 10:32:16;;;;;;;4.78;2.38;;;;;;;;;;5050520;28;20707;-73
2022/05/02 10:34:45;;;;;;;7.53;2.97;;;;;;;;;;5038463;28;20043;-74
2022/05/02 10:37:13;;;;;;;7.75;3.30;;;;;;;;;;5044369;28;20036;-73
2022/05/02 10:39:50;;;;;;;6.78;3.28;;;;;;;;;;5017947;28;20057;-73
2022/05/02 10:42:20;;;;;;;6.78;2.47;;;;;;;;;;5039423;28;20025;-73
2022/05/02 10:44:50;;;;;;;9.63;3.10;;;;;;;;;;5045116;28;20098;-73
2022/05/02 10:47:19;;;;;;;7.45;2.90;;;;;;;;;;5047998;28;20032;-73
2022/05/02 10:50:14;;;;;;;6.18;2.92;;;;;;;;;;5043657;28;20034;-73
2022/05/02 10:52:46;;;;;;;7.68;2.60;;;;;;;;;;5029489;28;20048;-73
2022/05/02 10:55:25;;;;;;;9.10;2.83;;;;;;;;;;5040846;28;20047;-73
2022/05/02 10:57:53;;;;;;;5.63;3.10;;;;;;;;;;5042172;28;20364;-73
2022/05/02 11:00:19;;;;;;;5.40;2.85;;;;;;;;;;5047216;28;20474;-73
2022/05/02 11:03:12;;;;;;;7.90;2.75;;;;;;;;;;5021274;28;20518;-73
2022/05/02 11:05:38;;;;;;;;;;;;;;;;;;5021071;28;20057;-73
2022/05/02 11:08:23;;;;;;;5.63;3.30;;;;;;;;;;5038461;28;19978;-74
2022/05/02 11:11:02;;;;;;;7.78;4.30;;;;;;;;;;5039353;28;20033;-73
2022/05/02 11:13:37;;;;;;;6.45;3.50;;;;;;;;;;5043765;28;20029;-74
2022/05/02 11:16:03;;;;;;;9.25;3.70;;;;;;;;;;5041030;28;20151;-73
2022/05/02 11:21:41;;;;;;;6.53;3.63;;;;;;;;;;5045966;28;20874;-74
2022/05/02 11:24:27;;;;;;;9.88;3.50;;;;;;;;;;5046688;28;20029;-74
2022/05/02 11:27:00;;;;;;;5.07;2.95;;;;;;;;;;5051050;28;20489;-73
2022/05/02 11:29:48;;;;;;;6.50;3.00;;;;;;;;;;5028668;28;20067;-75
2022/05/02 11:32:24;;;;;;;5.88;3.17;;;;;;;;;;5043396;28;20845;-74
2022/05/02 11:35:16;;;;;;;7.45;3.35;;;;;;;;;;5033294;28;20049;-74
2022/05/02 11:37:51;;;;;;;6.82;2.92;;;;;;;;;;5029081;28;20041;-74
2022/05/02 11:40:18;;;;;;;6.68;2.90;;;;;;;;;;5028259;28;20720;-74
2022/05/02 11:42:46;;;;;;;10.63;3.28;;;;;;;;;;5040776;28;20124;-74
2022/05/02 11:45:13;;;;;;;7.97;2.47;;;;;;;;;;5027802;28;20042;-74
2022/05/02 11:47:55;;;;;;;5.45;2.13;;;;;;;;;;5040427;28;20036;-74
2022/05/02 11:50:25;;;;;;;5.50;2.13;;;;;;;;;;5031879;28;20032;-74
2022/05/02 11:52:52;;;;;;;10.02;2.42;;;;;;;;;;5033630;28;20043;-74
2022/05/02 11:55:19;;;;;;;9.32;2.28;;;;;;;;;;5028195;28;20584;-74
2022/05/02 11:57:50;;;;;;;5.35;2.35;;;;;;;;;;5036444;28;20047;-74
2022/05/02 12:00:16;;;;;;;4.10;1.90;;;;;;;;;;5029983;28;20369;-74
2022/05/02 12:02:42;;;;;;;3.85;1.90;;;;;;;;;;5032491;28;20041;-74
2022/05/02 12:05:12;;;;;;;3.97;2.00;;;;;;;;;;5033861;28;20048;-74
2022/05/02 12:07:38;;;;;;;9.02;2.05;;;;;;;;;;5029377;28;20406;-74
2022/05/02 12:10:04;;;;;;;6.68;1.98;;;;;;;;;;5029037;28;20525;-74
2022/05/02 12:12:31;;;;;;;4.32;1.60;;;;;;;;;;5028140;28;20630;-74
2022/05/02 12:15:04;;;;;;;5.13;1.90;;;;;;;;;;5030493;28;20655;-74
2022/05/02 12:17:30;;;;;;;8.68;1.90;;;;;;;;;;5030855;28;20080;-74
2022/05/02 12:19:56;;;;;;;5.35;1.60;;;;;;;;;;5036716;28;20184;-74
2022/05/02 12:22:26;;;;;;;4.30;1.40;;;;;;;;;;5031010;28;20151;-74
2022/05/02 12:24:54;;;;;;;6.07;1.40;;;;;;;;;;5032908;28;20471;-74
2022/05/02 12:27:21;;;;;;;4.80;1.40;;;;;;;;;;5032210;28;20060;-74
2022/05/02 12:29:56;;;;;;;5.45;1.55;;;;;;;;;;5025359;28;20047;-74
2022/05/02 12:32:26;;;;;;;4.13;1.55;;;;;;;;;;5033258;28;20700;-74
2022/05/02 12:34:55;;;;;;;5.32;1.60;;;;;;;;;;5030543;28;20029;-74
2022/05/02 12:37:30;;;;;;;5.50;1.88;;;;;;;;;;5022266;28;20120;-74
2022/05/02 12:40:19;;;;;;;6.63;1.40;;;;;;;;;;5024593;28;20058;-74
2022/05/02 12:42:45;;;;;;;5.22;1.70;;;;;;;;;;5010888;28;20153;-74
2022/05/02 12:45:13;;;;;;;2.67;1.40;;;;;;;;;;5015401;28;20121;-74
2022/05/02 12:47:49;;;;;;;4.25;1.60;;;;;;;;;;5015842;28;20040;-74
2022/05/02 12:50:21;;;;;;;4.78;1.40;;;;;;;;;;5019194;28;20034;-74
2022/05/02 12:52:50;;;;;;;5.78;1.38;;;;;;;;;;5022039;28;20025;-74
2022/05/02 12:55:18;;;;;;;4.15;1.10;;;;;;;;;;5017570;28;20055;-74
2022/05/02 13:00:41;;;;;;;4.90;1.30;;;;;;;;;;5017774;28;20571;-74
2022/05/02 13:03:10;;;;;;;5.18;1.63;;;;;;;;;;5021651;28;20799;-74
2022/05/02 13:05:38;;;;;;;5.72;2.58;;;;;;;;;;5018673;28;20115;-74
2022/05/02 13:08:08;;;;;;;4.05;1.42;;;;;;;;;;5021163;28;20033;-74
2022/05/02 13:10:35;;;;;;;4.32;1.42;;;;;;;;;;5015611;28;20058;-74
2022/05/02 13:13:11;;;;;;;6.70;1.48;;;;;;;;;;5017224;28;20040;-74
2022/05/02 13:15:37;;;;;;;5.10;1.40;;;;;;;;;;5013977;28;20037;-74
2022/05/02 13:18:05;;;;;;;7.05;1.50;;;;;;;;;;5015591;28;20047;-74
2022/05/02 13:20:32;;;;;;;3.17;1.27;;;;;;;;;;5013828;28;20037;-74
2022/05/02 13:22:58;;;;;;;3.80;1.45;;;;;;;;;;5014663;28;20057;-74
2022/05/02 13:25:45;;;;;;;5.57;1.20;;;;;;;;;;5013285;28;20505;-74
2022/05/02 13:28:16;;;;;;;6.47;1.40;;;;;;;;;;5012526;28;20042;-74
2022/05/02 13:30:43;;;;;;;7.18;1.20;;;;;;;;;;5013954;28;20065;-74
2022/05/02 13:33:13;;;;;;;10.20;1.35;;;;;;;;;;5026463;28;20037;-74
2022/05/02 13:35:41;;;;;;;5.95;1.08;;;;;;;;;;5016630;28;20059;-75
2022/05/02 13:38:11;;;;;;;6.70;1.08;;;;;;;;;;5017272;28;20088;-74
2022/05/02 13:41:05;;;;;;;4.30;1.30;;;;;;;;;;5013921;28;20775;-74
2022/05/02 13:43:45;;;;;;;5.45;1.38;;;;;;;;;;5022335;28;20107;-74
2022/05/02 13:46:31;;;;;;;2.80;1.00;;;;;;;;;;5016285;28;20078;-74
2022/05/02 13:49:07;;;;;;;4.07;0.90;;;;;;;;;;5018131;28;20092;-74
2022/05/02 13:51:39;;;;;;;6.45;1.33;;;;;;;;;;5012742;28;20029;-74
2022/05/02 13:54:07;;;;;;;;;;;;;;;;;;5011952;28;20036;-75
2022/05/02 13:56:43;;;;;;;6.03;1.40;;;;;;;;;;5019192;28;19951;-74
2022/05/02 13:59:14;;;;;;;4.95;1.10;;;;;;;;;;5014217;28;20033;-74
2022/05/02 14:01:59;;;;;;;4.55;1.00;;;;;;;;;;5011715;28;20034;-74
2022/05/02 14:07:12;;;;;;;7.70;1.08;;;;;;;;;;5010922;28;20044;-74
2022/05/02 14:09:47;;;;;;;6.32;1.25;;;;;;;;;;5012723;28;20120;-74
2022/05/02 14:12:23;;;;;;;2.92;1.00;;;;;;;;;;5015213;28;20081;-75
2022/05/02 14:14:55;;;;;;;4.72;1.30;;;;;;;;;;5011325;28;20029;-75
2022/05/02 14:17:41;;;;;;;6.18;1.17;;;;;;;;;;5017874;28;20092;-74
2022/05/02 14:20:13;;;;;;;6.40;1.25;;;;;;;;;;5010594;28;20025;-75
2022/05/02 14:22:40;;;;;;;2.47;0.90;;;;;;;;;;5017841;28;20029;-74
2022/05/02 14:25:06;;;;;;;5.85;1.23;;;;;;;;;;5016268;28;20057;-74
2022/05/02 14:27:33;;;;;;;2.72;1.08;;;;;;;;;;5013207;28;20798;-74
2022/05/02 14:30:06;;;;;;;4.03;1.20;;;;;;;;;;5015677;28;20558;-74
2022/05/02 14:32:41;;;;;;;5.07;1.20;;;;;;;;;;5016074;28;20037;-74
2022/05/02 14:35:08;;;;;;;3.40;1.23;;;;;;;;;;5019755;28;20041;-74
2022/05/02 14:37:38;;;;;;;5.25;1.48;;;;;;;;;;5026341;28;20041;-74
2022/05/02 14:40:04;;;;;;;6.22;1.40;;;;;;;;;;5019466;28;20042;-74
2022/05/02 14:42:31;;;;;;;7.55;1.90;;;;;;;;;;5010799;28;20042;-75
2022/05/02 14:44:58;;;;;;;4.03;1.08;;;;;;;;;;5017230;28;20599;-75
2022/05/02 14:47:25;;;;;;;5.60;1.17;;;;;;;;;;5010806;28;20073;-74
2022/05/02 14:49:55;;;;;;;5.90;1.30;;;;;;;;;;5009952;28;20048;-74
2022/05/02 14:52:22;;;;;;;4.32;1.40;;;;;;;;;;5016334;28;20383;-74
2022/05/02 14:54:51;;;;;;;2.83;1.00;;;;;;;;;;5011398;28;20029;-74
2022/05/02 14:57:21;;;;;;;4.55;1.10;;;;;;;;;;5010810;28;20418;-74
2022/05/02 14:59:47;;;;;;;3.85;1.17;;;;;;;;;;5013804;28;20129;-74
2022/05/02 15:02:15;;;;;;;3.40;1.00;;;;;;;;;;5012982;28;20038;-74
2022/05/02 15:04:42;;;;;;;7.68;1.30;;;;;;;;;;5009977;28;20036;-74
2022/05/02 15:07:10;;;;;;;3.25;1.30;;;;;;;;;;5017848;28;20026;-74
2022/05/02 15:12:41;;;;;;;4.32;1.40;;;;;;;;;;5024103;28;20048;-74
2022/05/02 15:15:12;;;;;;;5.80;1.20;;;;;;;;;;5027911;28;20091;-74
2022/05/02 15:17:39;;;;;;;3.60;1.20;;;;;;;;;;5021673;28;20029;-75
2022/05/02 15:20:11;;;;;;;3.20;1.20;;;;;;;;;;5016895;28;20049;-74
2022/05/02 15:22:37;;;;;;;;;;;;;;;;;;5020889;28;20030;-74
2022/05/02 15:25:13;;;;;;;3.42;1.10;;;;;;;;;;5026910;28;19932;-74
2022/05/02 15:38:51;;;;;;;4.97;1.13;;;;;;;;;;5017062;28;20080;-75
2022/05/02 15:41:37;;;;;;;5.85;1.00;;;;;;;;;;5020146;28;20126;-74
2022/05/02 15:44:08;;;;;;;3.03;1.00;;;;;;;;;;5025953;28;20041;-75
2022/05/02 15:46:41;;;;;;;5.53;0.82;;;;;;;;;;5016948;28;20461;-74
2022/05/02 15:49:07;;;;;;;3.97;1.30;;;;;;;;;;5021641;28;20063;-74
2022/05/02 15:51:42;;;;;;;1.92;0.88;;;;;;;;;;5020990;28;20044;-74
2022/05/02 15:54:23;;;;;;;2.83;1.00;;;;;;;;;;5019816;28;20460;-74